Time;durP1;ratioP1;P1;durP2;ratioP2;P2;SDS_P1;SDS_P2;PMS_P1;PMS_P2;Temp;Humidity;BMP_temperature;BMP_pressure;BME280_temperature;BME280_humidity;BME280_pressure;Samples;Min_cycle;Max_cycle;Signal;HPM_P1;HPM_P2
2023/07/22 00:02:22;;;;;;;8.45;2.85;;;22.60;99.90;;;;;;5074888;28;20021;-53
2023/07/22 00:04:49;;;;;;;6.60;2.53;;;22.70;99.90;;;;;;5074336;28;20495;-53
2023/07/22 00:07:15;;;;;;;6.75;2.72;;;22.80;99.90;;;;;;5055679;28;20519;-52
2023/07/22 00:09:41;;;;;;;10.65;2.60;;;22.70;99.90;;;;;;5074639;28;20025;-52
2023/07/22 00:12:08;;;;;;;7.00;2.58;;;22.90;99.90;;;;;;5074634;28;20431;-52
2023/07/22 00:14:36;;;;;;;9.43;2.10;;;22.90;99.90;;;;;;5055523;28;20041;-52
2023/07/22 00:17:02;;;;;;;10.63;4.13;;;22.60;99.90;;;;;;5074471;28;20162;-51
2023/07/22 00:19:27;;;;;;;11.02;3.58;;;22.20;99.90;;;;;;5073120;28;20107;-52
2023/07/22 00:21:53;;;;;;;7.38;2.83;;;;;;;;;;5074361;28;20021;-52
2023/07/22 00:24:19;;;;;;;8.95;3.50;;;21.80;99.90;;;;;;5071895;28;20043;-52
2023/07/22 00:26:45;;;;;;;14.02;2.90;;;21.80;99.90;;;;;;5057166;28;20037;-52
2023/07/22 00:29:10;;;;;;;5.63;3.17;;;21.90;99.90;;;;;;5018890;28;20033;-53
2023/07/22 00:31:36;;;;;;;9.35;3.15;;;22.10;99.90;;;;;;5054042;28;20376;-52
2023/07/22 00:34:02;;;;;;;9.23;2.90;;;22.30;99.90;;;;;;5035153;28;20099;-53
2023/07/22 00:36:29;;;;;;;9.45;2.88;;;22.40;99.90;;;;;;5054631;28;20025;-52
2023/07/22 00:38:54;;;;;;;8.60;2.72;;;22.40;99.90;;;;;;5053821;28;20032;-52
2023/07/22 00:41:20;;;;;;;6.10;2.55;;;22.50;99.90;;;;;;5054058;28;20080;-52
2023/07/22 00:43:46;;;;;;;8.88;2.97;;;22.50;99.90;;;;;;5035001;28;20037;-52
2023/07/22 00:46:11;;;;;;;8.32;3.10;;;22.50;99.90;;;;;;5054118;28;20025;-51
2023/07/22 00:48:38;;;;;;;7.18;3.20;;;22.50;99.90;;;;;;5053548;28;20036;-52
2023/07/22 00:51:05;;;;;;;13.68;3.17;;;22.60;99.90;;;;;;5053694;28;20041;-52
2023/07/22 00:53:30;;;;;;;10.23;2.80;;;22.60;99.90;;;;;;5053929;28;20072;-52
2023/07/22 00:55:56;;;;;;;8.57;4.00;;;22.60;99.90;;;;;;5053544;28;20055;-52
2023/07/22 00:58:23;;;;;;;11.80;2.80;;;22.50;99.90;;;;;;5053672;28;20025;-52
2023/07/22 01:00:48;;;;;;;6.57;3.10;;;22.60;99.90;;;;;;5053538;28;20028;-52
2023/07/22 01:03:14;;;;;;;7.57;2.80;;;22.60;99.90;;;;;;5053726;28;20376;-53
2023/07/22 01:05:41;;;;;;;7.55;2.95;;;22.60;99.90;;;;;;5053459;28;20057;-52
2023/07/22 01:08:07;;;;;;;7.05;3.17;;;22.60;99.90;;;;;;5053626;28;20553;-52
2023/07/22 01:10:33;;;;;;;6.97;3.10;;;22.50;99.90;;;;;;5053381;28;20112;-52
2023/07/22 01:12:58;;;;;;;6.93;3.03;;;22.40;99.90;;;;;;5053331;28;20089;-52
2023/07/22 01:15:25;;;;;;;7.28;3.72;;;22.30;99.90;;;;;;5053396;28;20048;-52
2023/07/22 01:17:52;;;;;;;5.70;3.08;;;22.20;99.90;;;;;;5053198;28;20021;-52
2023/07/22 01:20:19;;;;;;;6.30;3.42;;;22.30;99.90;;;;;;5053379;28;20111;-53
2023/07/22 01:22:52;;;;;;;8.32;3.03;;;22.40;99.90;;;;;;5053400;28;20488;-51
2023/07/22 01:25:21;;;;;;;6.53;2.70;;;22.40;99.90;;;;;;5052975;28;20029;-52
2023/07/22 01:27:47;;;;;;;6.07;3.63;;;22.40;99.90;;;;;;5053280;28;20124;-53
2023/07/22 01:30:14;;;;;;;8.40;3.40;;;22.50;99.90;;;;;;5034467;28;20037;-52
2023/07/22 01:32:40;;;;;;;12.00;4.25;;;22.60;99.90;;;;;;5053078;28;20060;-52
2023/07/22 01:35:07;;;;;;;9.48;3.63;;;22.60;99.90;;;;;;5053014;28;20071;-52
2023/07/22 01:37:33;;;;;;;9.27;3.85;;;22.60;99.90;;;;;;5001602;28;20049;-52
2023/07/22 01:39:59;;;;;;;8.90;3.30;;;22.60;99.90;;;;;;5053046;28;20086;-52
2023/07/22 01:42:25;;;;;;;8.52;3.35;;;22.60;99.90;;;;;;5052821;28;20036;-51
2023/07/22 01:44:51;;;;;;;8.32;4.03;;;22.60;99.90;;;;;;5033947;28;20037;-52
2023/07/22 01:47:17;;;;;;;11.85;3.95;;;22.60;99.90;;;;;;5053066;28;20036;-52
2023/07/22 01:49:44;;;;;;;15.00;3.95;;;22.50;99.90;;;;;;5033867;28;20102;-53
2023/07/22 01:52:10;;;;;;;9.20;4.07;;;22.40;99.90;;;;;;5052482;28;20527;-52
2023/07/22 01:54:36;;;;;;;12.90;3.88;;;22.50;99.90;;;;;;5052655;28;20112;-52
2023/07/22 01:57:01;;;;;;;8.57;4.05;;;22.50;99.90;;;;;;5052337;28;20108;-51
2023/07/22 01:59:27;;;;;;;9.55;4.00;;;22.40;99.90;;;;;;5052838;28;20025;-52
2023/07/22 02:01:53;;;;;;;8.27;3.60;;;22.40;99.90;;;;;;5052128;28;20340;-52
2023/07/22 02:04:19;;;;;;;9.32;3.63;;;22.20;99.90;;;;;;5052141;28;20396;-53
2023/07/22 02:06:44;;;;;;;9.57;4.10;;;22.20;99.90;;;;;;5050257;28;20124;-52
2023/07/22 02:09:13;;;;;;;10.43;3.85;;;22.20;99.90;;;;;;5052137;28;20082;-51
2023/07/22 02:11:39;;;;;;;9.98;3.92;;;22.00;99.90;;;;;;5033981;28;20072;-52
2023/07/22 02:14:06;;;;;;;7.25;3.80;;;22.10;99.90;;;;;;5052063;28;20033;-52
2023/07/22 02:16:38;;;;;;;8.02;3.80;;;22.20;99.90;;;;;;5052303;28;20032;-52
2023/07/22 02:19:04;;;;;;;8.73;4.07;;;22.10;99.90;;;;;;5052092;28;20039;-51
2023/07/22 02:21:29;;;;;;;7.68;3.70;;;22.20;99.90;;;;;;5052080;28;20025;-51
2023/07/22 02:23:55;;;;;;;7.30;3.78;;;22.10;99.90;;;;;;5033333;28;20040;-52
2023/07/22 02:26:21;;;;;;;8.88;3.90;;;22.00;99.90;;;;;;5033187;28;20033;-52
2023/07/22 02:28:48;;;;;;;11.65;3.92;;;22.00;99.90;;;;;;5052019;28;20025;-52
2023/07/22 02:31:14;;;;;;;6.85;3.47;;;;;;;;;;5051989;28;20461;-52
2023/07/22 02:33:40;;;;;;;10.23;3.65;;;;;;;;;;5051747;28;20033;-52
2023/07/22 02:36:06;;;;;;;9.13;4.93;;;21.80;99.90;;;;;;5033085;28;20120;-52
2023/07/22 02:38:32;;;;;;;10.25;4.70;;;22.00;99.90;;;;;;5052083;28;20091;-52
2023/07/22 02:41:07;;;;;;;12.15;4.97;;;22.00;99.90;;;;;;5033024;28;20036;-51
2023/07/22 02:43:36;;;;;;;8.68;3.20;;;22.00;99.90;;;;;;5051611;28;20468;-52
2023/07/22 02:46:03;;;;;;;7.30;3.63;;;22.00;99.90;;;;;;5051651;28;20029;-52
2023/07/22 02:48:31;;;;;;;6.43;3.35;;;22.00;99.90;;;;;;5051627;28;20379;-52
2023/07/22 02:51:05;;;;;;;9.70;4.13;;;22.00;99.90;;;;;;5016754;28;20048;-53
2023/07/22 02:53:32;;;;;;;6.75;3.80;;;22.00;99.90;;;;;;5051379;28;20139;-51
2023/07/22 02:55:59;;;;;;;10.13;4.03;;;22.00;99.90;;;;;;5051740;28;20391;-52
2023/07/22 02:58:25;;;;;;;12.02;4.25;;;22.10;99.90;;;;;;5032781;28;20029;-52
2023/07/22 03:00:51;;;;;;;9.30;3.90;;;22.10;99.90;;;;;;5032812;28;20087;-52
2023/07/22 03:03:18;;;;;;;7.43;3.60;;;22.10;99.90;;;;;;5051672;28;20018;-52
2023/07/22 03:05:45;;;;;;;7.50;4.38;;;22.20;99.90;;;;;;5051416;28;20492;-52
2023/07/22 03:08:11;;;;;;;9.77;3.13;;;;;;;;;;5050489;28;20025;-53
2023/07/22 03:10:37;;;;;;;8.70;4.00;;;;;;;;;;5032906;28;20033;-52
2023/07/22 03:13:03;;;;;;;8.32;3.70;;;;;;;;;;5051436;28;20041;-52
2023/07/22 03:15:29;;;;;;;6.10;3.38;;;;;;;;;;5055370;28;20586;-53
2023/07/22 03:17:56;;;;;;;6.43;3.08;;;;;;;;;;5020380;28;20029;-52
2023/07/22 03:20:25;;;;;;;11.57;4.07;;;22.60;99.90;;;;;;5053439;28;20660;-52
2023/07/22 03:22:51;;;;;;;8.63;3.38;;;22.10;99.90;;;;;;5055718;28;20032;-51
2023/07/22 03:25:19;;;;;;;9.85;3.20;;;21.70;99.90;;;;;;5055459;28;20033;-53
2023/07/22 03:27:45;;;;;;;10.07;3.63;;;21.30;99.90;;;;;;5055395;28;20075;-52
2023/07/22 03:30:16;;;;;;;5.72;3.35;;;21.20;99.90;;;;;;5055287;28;20060;-52
2023/07/22 03:32:43;;;;;;;7.32;2.60;;;21.10;99.90;;;;;;5036881;28;20531;-51
2023/07/22 03:35:10;;;;;;;6.78;3.47;;;20.90;99.90;;;;;;5055173;28;20697;-52
2023/07/22 03:37:36;;;;;;;6.03;2.80;;;;;;;;;;5055046;28;20079;-52
2023/07/22 03:40:06;;;;;;;7.40;3.38;;;;;;;;;;5053896;28;20021;-52
2023/07/22 03:42:33;;;;;;;8.68;3.40;;;;;;;;;;5068129;28;20047;-51
2023/07/22 03:44:59;;;;;;;6.53;3.72;;;;;;;;;;5074976;28;20028;-52
2023/07/22 03:47:25;;;;;;;8.48;3.70;;;;;;;;;;5075012;28;20025;-52
2023/07/22 03:49:51;;;;;;;9.52;3.00;;;;;;;;;;5074798;28;20071;-52
2023/07/22 03:52:18;;;;;;;9.23;3.70;;;;;;;;;;5055811;28;20044;-52
2023/07/22 03:54:44;;;;;;;8.85;3.88;;;;;;;;;;5074628;28;20513;-52
2023/07/22 03:57:10;;;;;;;7.32;3.25;;;;;;;;;;5074816;28;20036;-52
2023/07/22 03:59:36;;;;;;;6.70;3.88;;;;;;;;;;5074627;28;20060;-52
2023/07/22 04:02:03;;;;;;;7.20;2.63;;;;;;;;;;5074674;28;20037;-51
2023/07/22 04:04:29;;;;;;;6.47;2.75;;;20.60;99.90;;;;;;5074470;28;20024;-51
2023/07/22 04:06:54;;;;;;;8.88;3.22;;;20.60;99.90;;;;;;5074482;28;20032;-52
2023/07/22 04:09:20;;;;;;;5.93;2.55;;;20.70;99.90;;;;;;5074572;28;20503;-52
2023/07/22 04:11:46;;;;;;;7.35;3.65;;;20.80;99.90;;;;;;5074413;28;20090;-51
2023/07/22 04:14:12;;;;;;;9.98;4.03;;;20.90;99.90;;;;;;5074494;28;20024;-51
2023/07/22 04:16:39;;;;;;;11.80;4.50;;;21.10;99.90;;;;;;5074683;28;20032;-52
2023/07/22 04:19:05;;;;;;;12.55;4.30;;;;;;;;;;5074400;28;20025;-52
2023/07/22 04:21:30;;;;;;;8.20;3.80;;;21.60;99.90;;;;;;5074279;28;20040;-51
2023/07/22 04:23:56;;;;;;;13.07;4.80;;;21.70;99.90;;;;;;5073916;28;20025;-52
2023/07/22 04:26:22;;;;;;;13.95;4.40;;;21.50;99.90;;;;;;5074221;28;20068;-53
2023/07/22 04:28:48;;;;;;;11.48;4.75;;;21.60;99.90;;;;;;5074130;28;20391;-53
2023/07/22 04:31:14;;;;;;;10.07;4.65;;;21.70;99.90;;;;;;5074671;28;20028;-52
2023/07/22 04:33:41;;;;;;;12.15;5.05;;;;;;;;;;5074016;28;20032;-52
2023/07/22 04:36:07;;;;;;;7.80;4.30;;;21.80;99.90;;;;;;5073852;28;20063;-53
2023/07/22 04:38:33;;;;;;;8.52;4.72;;;21.80;99.90;;;;;;5074031;28;20399;-52
2023/07/22 04:41:01;;;;;;;7.13;4.47;;;22.10;99.90;;;;;;5074078;28;20017;-51
2023/07/22 04:43:27;;;;;;;11.80;5.10;;;;;;;;;;5073946;28;20482;-52
2023/07/22 04:45:53;;;;;;;9.43;4.30;;;;;;;;;;5074017;28;20024;-52
2023/07/22 04:48:20;;;;;;;8.50;4.85;;;;;;;;;;5074172;28;20082;-52
2023/07/22 04:50:46;;;;;;;13.40;5.45;;;;;;;;;;5074015;28;20043;-53
2023/07/22 04:53:13;;;;;;;9.38;5.25;;;;;;;;;;5073569;28;20047;-53
2023/07/22 04:55:40;;;;;;;9.00;5.85;;;22.50;99.90;;;;;;5073944;28;20497;-52
2023/07/22 04:58:06;;;;;;;11.80;5.05;;;22.60;99.90;;;;;;5031048;28;20547;-52
2023/07/22 05:00:33;;;;;;;13.45;5.63;;;22.50;99.90;;;;;;5031433;28;20069;-53
2023/07/22 05:02:59;;;;;;;10.80;6.15;;;22.50;99.90;;;;;;5031111;28;20076;-53
2023/07/22 05:05:25;;;;;;;15.82;6.93;;;22.50;99.90;;;;;;5031123;28;20513;-52
2023/07/22 05:07:52;;;;;;;10.35;5.47;;;22.80;99.90;;;;;;5031164;28;20132;-52
2023/07/22 05:10:19;;;;;;;9.80;4.63;;;;;;;;;;5031115;28;20034;-51
2023/07/22 05:12:45;;;;;;;13.25;5.70;;;22.90;99.90;;;;;;5031112;28;20073;-52
2023/07/22 05:15:12;;;;;;;11.63;4.97;;;23.00;99.90;;;;;;5031027;28;20036;-52
2023/07/22 05:17:38;;;;;;;8.68;5.07;;;23.10;99.90;;;;;;4997907;28;20041;-52
2023/07/22 05:20:06;;;;;;;13.65;5.00;;;23.30;99.90;;;;;;5027999;28;20504;-53
2023/07/22 05:22:32;;;;;;;12.52;5.30;;;23.40;99.90;;;;;;5014475;28;20049;-53
2023/07/22 05:24:58;;;;;;;8.10;4.28;;;23.40;99.90;;;;;;5022080;28;20553;-52
2023/07/22 05:27:25;;;;;;;9.30;4.55;;;23.40;99.90;;;;;;5030751;28;20400;-52
2023/07/22 05:29:51;;;;;;;11.30;5.85;;;23.30;99.90;;;;;;5065118;28;20490;-53
2023/07/22 05:32:16;;;;;;;11.05;4.55;;;23.30;99.90;;;;;;5062290;28;20045;-53
2023/07/22 05:34:42;;;;;;;11.18;4.47;;;23.40;99.90;;;;;;5052933;28;20065;-53
2023/07/22 05:37:08;;;;;;;8.00;5.10;;;23.50;99.90;;;;;;5052330;28;20059;-53
2023/07/22 05:39:33;;;;;;;11.30;4.50;;;23.60;99.90;;;;;;5052879;28;20065;-53
2023/07/22 05:41:59;;;;;;;10.07;4.10;;;23.80;99.90;;;;;;5052768;28;20178;-53
2023/07/22 05:44:25;;;;;;;13.75;4.88;;;23.50;99.90;;;;;;5052952;28;20029;-53
2023/07/22 05:46:51;;;;;;;14.77;4.55;;;23.50;99.90;;;;;;5036489;28;20496;-53
2023/07/22 05:49:16;;;;;;;10.43;6.07;;;23.40;99.90;;;;;;5064699;28;20043;-53
2023/07/22 05:51:42;;;;;;;11.65;4.75;;;23.30;99.90;;;;;;5053614;28;20028;-51
2023/07/22 05:54:08;;;;;;;10.65;4.72;;;23.40;99.90;;;;;;5053501;28;20036;-55
2023/07/22 05:56:34;;;;;;;13.38;6.03;;;23.40;99.90;;;;;;5072602;28;20033;-53
2023/07/22 05:58:59;;;;;;;10.15;6.65;;;23.40;99.90;;;;;;5072546;28;20020;-53
2023/07/22 06:01:25;;;;;;;8.75;5.38;;;23.70;99.90;;;;;;5063212;28;20036;-54
2023/07/22 06:03:51;;;;;;;11.52;6.30;;;23.80;99.90;;;;;;5066261;28;20029;-55
2023/07/22 06:06:18;;;;;;;12.63;6.85;;;23.70;99.90;;;;;;5072536;28;20492;-55
2023/07/22 06:08:44;;;;;;;10.18;6.55;;;23.70;99.90;;;;;;5072470;28;20047;-60
2023/07/22 06:11:09;;;;;;;9.02;5.75;;;23.90;99.90;;;;;;5072271;28;20486;-55
2023/07/22 06:13:35;;;;;;;13.07;6.78;;;23.80;99.90;;;;;;5072434;28;20052;-54
2023/07/22 06:16:01;;;;;;;12.15;5.63;;;23.90;99.90;;;;;;5072141;28;20479;-55
2023/07/22 06:18:26;;;;;;;9.50;4.95;;;24.10;99.90;;;;;;5072086;28;20024;-53
2023/07/22 06:20:52;;;;;;;11.48;4.75;;;24.20;99.90;;;;;;5072185;28;20534;-56
2023/07/22 06:23:19;;;;;;;7.22;4.80;;;;;;;;;;5072035;28;20047;-55
2023/07/22 06:25:45;;;;;;;9.02;5.53;;;24.60;99.90;;;;;;5072093;28;20020;-55
2023/07/22 06:28:11;;;;;;;13.75;5.15;;;;;;;;;;5071949;28;20047;-55
2023/07/22 06:30:36;;;;;;;12.90;5.70;;;25.00;99.90;;;;;;5071800;28;20025;-56
2023/07/22 06:33:02;;;;;;;10.07;4.78;;;25.20;99.90;;;;;;5071959;28;20083;-57
2023/07/22 06:35:28;;;;;;;10.15;5.00;;;25.20;99.90;;;;;;5071936;28;20024;-58
2023/07/22 06:37:54;;;;;;;9.93;4.72;;;25.00;99.90;;;;;;5053043;28;20123;-57
2023/07/22 06:40:20;;;;;;;12.40;4.82;;;;;;;;;;5072015;28;20030;-55
2023/07/22 06:42:45;;;;;;;8.13;3.95;;;25.20;99.90;;;;;;5072296;28;20032;-56
2023/07/22 06:45:11;;;;;;;11.50;4.82;;;25.10;99.90;;;;;;5071980;28;20024;-57
2023/07/22 06:47:37;;;;;;;9.13;5.38;;;24.90;99.90;;;;;;5052648;28;20090;-57
2023/07/22 06:50:04;;;;;;;9.77;4.72;;;25.30;99.90;;;;;;5053151;28;20094;-55
2023/07/22 06:52:33;;;;;;;8.55;4.72;;;25.20;99.90;;;;;;5036274;28;20083;-55
2023/07/22 06:54:59;;;;;;;11.10;5.05;;;25.40;99.90;;;;;;5071866;28;20052;-55
2023/07/22 06:57:27;;;;;;;9.55;4.82;;;25.30;99.90;;;;;;5071809;28;20066;-58
2023/07/22 06:59:56;;;;;;;8.05;4.43;;;25.30;99.90;;;;;;5071636;28;20108;-57
2023/07/22 07:02:22;;;;;;;8.50;4.30;;;25.30;99.90;;;;;;5071705;28;20504;-58
2023/07/22 07:04:48;;;;;;;9.13;5.07;;;25.30;99.90;;;;;;5064882;28;20048;-58
2023/07/22 07:07:14;;;;;;;7.38;4.15;;;;;;;;;;5051676;28;20082;-57
2023/07/22 07:09:41;;;;;;;6.40;3.60;;;;;;;;;;5051684;28;20025;-54
2023/07/22 07:12:07;;;;;;;8.55;3.75;;;;;;;;;;5051661;28;20108;-55
2023/07/22 07:14:33;;;;;;;8.32;3.95;;;;;;;;;;5051488;28;20029;-58
2023/07/22 07:16:59;;;;;;;9.55;4.25;;;;;;;;;;5051372;28;20107;-55
2023/07/22 07:19:26;;;;;;;8.88;5.28;;;;;;;;;;5051376;28;20112;-55
2023/07/22 07:21:52;;;;;;;11.05;4.80;;;;;;;;;;5051541;28;20449;-56
2023/07/22 07:24:18;;;;;;;12.13;5.90;;;;;;;;;;5051378;28;20033;-58
2023/07/22 07:26:44;;;;;;;10.73;4.30;;;26.20;99.90;;;;;;5051439;28;20021;-55
2023/07/22 07:29:10;;;;;;;8.00;3.50;;;26.10;99.90;;;;;;5051415;28;20461;-57
2023/07/22 07:31:37;;;;;;;9.35;3.95;;;;;;;;;;5051472;28;20531;-57
2023/07/22 07:34:02;;;;;;;7.55;4.63;;;26.50;99.90;;;;;;5050744;28;20029;-58
2023/07/22 07:36:28;;;;;;;9.43;4.18;;;26.30;99.90;;;;;;5051306;28;20496;-57
2023/07/22 07:38:54;;;;;;;7.25;4.20;;;;;;;;;;5051208;28;20112;-55
2023/07/22 07:41:21;;;;;;;8.07;4.65;;;26.90;99.90;;;;;;5051357;28;20032;-57
2023/07/22 07:43:47;;;;;;;6.75;4.50;;;26.70;99.90;;;;;;5051113;28;20052;-57
2023/07/22 07:46:23;;;;;;;10.00;4.80;;;;;;;;;;5051510;28;20381;-55
2023/07/22 07:48:51;;;;;;;10.05;3.88;;;27.00;99.90;;;;;;5051163;28;20025;-56
2023/07/22 07:51:18;;;;;;;7.38;4.13;;;;;;;;;;5051216;28;20159;-56
2023/07/22 07:53:49;;;;;;;7.38;3.17;;;27.40;99.90;;;;;;5051436;28;20388;-55
2023/07/22 07:56:15;;;;;;;8.70;4.20;;;27.30;99.90;;;;;;5051166;28;20104;-58
2023/07/22 07:58:41;;;;;;;10.88;3.22;;;27.30;99.90;;;;;;5051161;28;20025;-55
2023/07/22 08:01:07;;;;;;;9.75;3.50;;;27.40;99.90;;;;;;5054352;28;20032;-58
2023/07/22 08:03:35;;;;;;;6.38;3.28;;;27.50;99.90;;;;;;5054773;28;20017;-56
2023/07/22 08:06:01;;;;;;;7.40;3.97;;;;;;;;;;5054523;28;20056;-55
2023/07/22 08:08:27;;;;;;;6.93;3.33;;;28.00;99.90;;;;;;5054668;28;20029;-58
2023/07/22 08:11:08;;;;;;;7.25;3.28;;;27.80;99.90;;;;;;5054820;28;20037;-56
2023/07/22 08:13:35;;;;;;;6.70;3.55;;;;;;;;;;5055000;28;20036;-57
2023/07/22 08:16:03;;;;;;;7.53;3.63;;;;;;;;;;5060153;28;20465;-55
2023/07/22 08:18:29;;;;;;;8.43;3.97;;;;;;;;;;5069400;28;20706;-59
2023/07/22 08:20:55;;;;;;;7.45;3.45;;;;;;;;;;5059670;28;20107;-56
2023/07/22 08:23:21;;;;;;;5.78;3.28;;;;;;;;;;5058123;28;20029;-55
2023/07/22 08:25:48;;;;;;;7.35;3.10;;;;;;;;;;5065337;28;20119;-59
2023/07/22 08:28:14;;;;;;;9.07;4.20;;;;;;;;;;5065570;28;20115;-57
2023/07/22 08:30:42;;;;;;;5.88;3.35;;;;;;;;;;5063261;28;20031;-55
2023/07/22 08:33:08;;;;;;;5.97;2.78;;;;;;;;;;5063151;28;20392;-56
2023/07/22 08:35:35;;;;;;;8.90;2.97;;;;;;;;;;5055896;28;20169;-56
2023/07/22 08:38:02;;;;;;;6.50;2.92;;;;;;;;;;5062156;28;20585;-54
2023/07/22 08:40:28;;;;;;;8.27;3.28;;;;;;;;;;5066259;28;20154;-58
2023/07/22 08:42:54;;;;;;;7.45;3.30;;;;;;;;;;5064410;28;20040;-55
2023/07/22 08:45:21;;;;;;;6.18;3.20;;;;;;;;;;5049897;28;20040;-56
2023/07/22 08:47:47;;;;;;;7.90;3.40;;;;;;;;;;5061346;28;20033;-57
2023/07/22 08:50:19;;;;;;;7.80;3.60;;;;;;;;;;5069787;28;20024;-53
2023/07/22 08:52:46;;;;;;;13.70;3.30;;;;;;;;;;5073071;28;20040;-54
2023/07/22 08:55:12;;;;;;;6.90;3.03;;;;;;;;;;5068093;28;20029;-54
2023/07/22 08:57:38;;;;;;;6.63;2.97;;;;;;;;;;5073423;28;20035;-55
2023/07/22 09:00:06;;;;;;;5.35;2.45;;;;;;;;;;5073126;28;20112;-54
2023/07/22 09:02:35;;;;;;;5.47;2.90;;;;;;;;;;5072968;28;20033;-55
2023/07/22 09:05:02;;;;;;;4.78;2.58;;;;;;;;;;5071863;28;20056;-55
2023/07/22 09:07:48;;;;;;;3.50;2.42;;;;;;;;;;5050986;28;20475;-55
2023/07/22 09:10:16;;;;;;;6.38;3.13;;;;;;;;;;5050864;28;20040;-54
2023/07/22 09:12:42;;;;;;;7.85;2.47;;;;;;;;;;5050797;28;20044;-54
2023/07/22 09:15:12;;;;;;;5.47;2.70;;;28.10;99.90;;;;;;5034169;28;20044;-55
2023/07/22 09:17:39;;;;;;;4.75;2.42;;;28.30;99.90;;;;;;5017580;28;20439;-55
2023/07/22 09:20:05;;;;;;;4.60;2.47;;;28.30;99.90;;;;;;5051014;28;20029;-55
2023/07/22 09:22:33;;;;;;;5.10;2.45;;;28.20;99.90;;;;;;5001011;28;20037;-55
2023/07/22 09:25:18;;;;;;;4.15;2.28;;;28.20;99.90;;;;;;5033993;28;20111;-54
2023/07/22 09:27:44;;;;;;;5.55;2.60;;;;;;;;;;5050766;28;20036;-55
2023/07/22 09:30:23;;;;;;;4.72;2.55;;;;;;;;;;5050694;28;20036;-54
2023/07/22 09:32:50;;;;;;;4.40;2.17;;;;;;;;;;5050490;28;20067;-54
2023/07/22 09:35:16;;;;;;;4.10;2.70;;;;;;;;;;5050587;28;20693;-55
2023/07/22 09:37:42;;;;;;;5.20;2.78;;;;;;;;;;5051584;28;20033;-55
2023/07/22 09:40:25;;;;;;;3.85;2.55;;;;;;;;;;5072818;28;20066;-54
2023/07/22 09:42:55;;;;;;;8.77;3.80;;;;;;;;;;5072640;28;20496;-55
2023/07/22 09:45:25;;;;;;;5.28;2.90;;;;;;;;;;5072958;28;20028;-54
2023/07/22 09:47:52;;;;;;;4.10;2.45;;;;;;;;;;5072789;28;20036;-54
2023/07/22 09:50:23;;;;;;;4.10;2.65;;;;;;;;;;5072429;28;20463;-55
2023/07/22 09:52:50;;;;;;;5.35;3.10;;;;;;;;;;5072418;28;20131;-54
2023/07/22 09:55:18;;;;;;;5.22;2.55;;;28.90;99.90;;;;;;5073118;28;20060;-54
2023/07/22 09:57:52;;;;;;;4.78;3.00;;;29.00;99.90;;;;;;5072406;28;20116;-54
2023/07/22 10:00:19;;;;;;;4.82;3.22;;;28.60;99.90;;;;;;5072377;28;20035;-54
2023/07/22 10:02:49;;;;;;;5.07;2.92;;;28.50;99.90;;;;;;5072604;28;20025;-54
2023/07/22 10:05:16;;;;;;;4.75;3.10;;;;;;;;;;5072157;28;20123;-54
2023/07/22 10:07:47;;;;;;;5.35;2.55;;;;;;;;;;5072241;28;20486;-55
2023/07/22 10:10:15;;;;;;;5.57;3.05;;;;;;;;;;5072372;28;20078;-55
2023/07/22 10:12:42;;;;;;;6.65;3.65;;;;;;;;;;5072240;28;20083;-57
2023/07/22 10:15:10;;;;;;;4.45;3.03;;;;;;;;;;5072329;28;20037;-55
2023/07/22 10:17:36;;;;;;;5.03;2.80;;;;;;;;;;5072058;28;20078;-55
2023/07/22 10:20:07;;;;;;;6.72;2.80;;;;;;;;;;5072148;28;20392;-55
2023/07/22 10:22:37;;;;;;;8.77;3.65;;;;;;;;;;5037690;28;20071;-56
2023/07/22 10:25:07;;;;;;;5.72;3.20;;;;;;;;;;5071975;28;20035;-55
2023/07/22 10:27:35;;;;;;;5.90;2.80;;;;;;;;;;5072581;28;20029;-55
2023/07/22 10:30:01;;;;;;;4.07;2.85;;;;;;;;;;5071893;28;20039;-55
2023/07/22 10:32:34;;;;;;;5.50;3.00;;;;;;;;;;5071777;28;20507;-55
2023/07/22 10:35:00;;;;;;;3.03;2.40;;;;;;;;;;5071917;28;20541;-55
2023/07/22 10:37:31;;;;;;;7.30;4.47;;;;;;;;;;5072006;28;20040;-55
2023/07/22 10:40:01;;;;;;;5.40;3.03;;;;;;;;;;5071675;28;20033;-55
2023/07/22 10:42:27;;;;;;;4.30;2.95;;;;;;;;;;5071638;28;20037;-55
2023/07/22 10:44:53;;;;;;;6.10;2.55;;;;;;;;;;5071872;28;20017;-56
2023/07/22 10:47:46;;;;;;;3.33;2.60;;;;;;;;;;5071793;28;20040;-55
2023/07/22 10:50:12;;;;;;;6.47;2.40;;;;;;;;;;5049932;28;20043;-56
2023/07/22 10:52:39;;;;;;;4.05;2.40;;;;;;;;;;5071564;28;20040;-56
2023/07/22 10:55:14;;;;;;;7.28;2.83;;;;;;;;;;5071820;28;20029;-55
2023/07/22 10:57:50;;;;;;;4.47;2.72;;;;;;;;;;5071508;28;20035;-55
2023/07/22 11:00:20;;;;;;;3.47;2.30;;;;;;;;;;5070225;28;20687;-55
2023/07/22 11:03:07;;;;;;;6.38;2.67;;;32.00;99.90;;;;;;5056215;28;20033;-55
2023/07/22 11:05:50;;;;;;;3.75;2.60;;;;;;;;;;5061858;28;20049;-56
2023/07/22 11:08:16;;;;;;;5.40;3.03;;;;;;;;;;5061819;28;20552;-55
2023/07/22 11:10:55;;;;;;;3.30;2.47;;;;;;;;;;5060334;28;20025;-55
2023/07/22 11:13:28;;;;;;;5.57;2.75;;;;;;;;;;5056207;28;20170;-55
2023/07/22 11:15:59;;;;;;;5.90;3.72;;;;;;;;;;5069283;28;20085;-55
2023/07/22 11:18:36;;;;;;;4.20;2.85;;;;;;;;;;5066258;28;20388;-54
2023/07/22 11:21:02;;;;;;;5.45;2.45;;;32.60;99.90;;;;;;5065221;28;20029;-54
2023/07/22 11:23:27;;;;;;;2.90;2.15;;;32.70;99.90;;;;;;5046279;28;20044;-55
2023/07/22 11:25:54;;;;;;;3.60;2.35;;;33.10;99.90;;;;;;5064716;28;20027;-55
2023/07/22 11:28:21;;;;;;;3.33;2.38;;;;;;;;;;5067756;28;20083;-55
2023/07/22 11:30:47;;;;;;;5.78;2.83;;;32.00;99.90;;;;;;5062638;28;20029;-54
2023/07/22 11:33:13;;;;;;;3.53;2.42;;;32.10;99.90;;;;;;5042579;28;20041;-54
2023/07/22 11:35:42;;;;;;;3.88;2.70;;;32.50;99.90;;;;;;5062992;28;20039;-54
2023/07/22 11:38:12;;;;;;;4.78;2.63;;;32.60;99.90;;;;;;5066096;28;20039;-56
2023/07/22 11:40:38;;;;;;;3.67;2.85;;;33.30;99.90;;;;;;5002661;28;20399;-58
2023/07/22 11:43:04;;;;;;;4.47;2.75;;;;;;;;;;5069860;28;20025;-56
2023/07/22 11:45:30;;;;;;;4.57;2.40;;;33.90;99.90;;;;;;5067698;28;20039;-54
2023/07/22 11:47:56;;;;;;;3.78;2.47;;;33.80;99.90;;;;;;5066082;28;20033;-54
2023/07/22 11:50:34;;;;;;;6.03;2.67;;;33.80;99.90;;;;;;5071127;28;20032;-55
2023/07/22 11:53:00;;;;;;;5.18;2.83;;;33.60;99.90;;;;;;5067570;28;20037;-55
2023/07/22 11:55:26;;;;;;;4.70;2.80;;;32.70;99.90;;;;;;5065221;28;20107;-55
2023/07/22 11:57:55;;;;;;;2.72;2.50;;;32.70;99.90;;;;;;5069244;28;20024;-54
2023/07/22 12:00:22;;;;;;;6.35;3.20;;;33.40;99.90;;;;;;5067094;28;20392;-55
2023/07/22 12:02:48;;;;;;;5.10;2.35;;;33.80;99.90;;;;;;5066533;28;20025;-54
2023/07/22 12:05:21;;;;;;;3.95;2.83;;;33.90;99.90;;;;;;5044199;28;20052;-55
2023/07/22 12:07:47;;;;;;;4.13;2.50;;;33.60;99.90;;;;;;5067244;28;20503;-54
2023/07/22 12:10:13;;;;;;;6.38;2.80;;;33.00;99.90;;;;;;5073127;28;20021;-54
2023/07/22 12:12:46;;;;;;;5.72;2.60;;;32.80;99.90;;;;;;5050696;28;20404;-54
2023/07/22 12:15:17;;;;;;;3.75;2.88;;;33.00;99.90;;;;;;5068327;28;20067;-54
2023/07/22 12:17:46;;;;;;;;;;;32.80;99.90;;;;;;5066196;28;20032;-54
2023/07/22 12:20:12;;;;;;;4.15;2.60;;;32.20;99.90;;;;;;5063227;28;19973;-54
2023/07/22 12:22:38;;;;;;;5.15;3.20;;;31.80;99.90;;;;;;5001184;28;20060;-54
2023/07/22 12:25:05;;;;;;;3.95;3.05;;;31.90;99.90;;;;;;5069101;28;20375;-54
2023/07/22 12:27:31;;;;;;;4.60;2.58;;;32.20;99.90;;;;;;5066812;28;20078;-55
2023/07/22 12:29:57;;;;;;;7.53;3.10;;;32.20;99.90;;;;;;5061952;28;20024;-54
2023/07/22 12:32:22;;;;;;;3.63;2.65;;;32.30;99.90;;;;;;5066188;28;20500;-54
2023/07/22 12:34:48;;;;;;;7.03;2.83;;;32.80;99.90;;;;;;5067543;28;20109;-53
2023/07/22 12:37:14;;;;;;;3.90;2.80;;;32.90;99.90;;;;;;5069780;28;20068;-55
2023/07/22 12:39:39;;;;;;;5.38;3.03;;;33.30;99.90;;;;;;5064352;28;20033;-54
2023/07/22 12:42:05;;;;;;;5.45;2.50;;;33.10;99.90;;;;;;5051154;28;20048;-55
2023/07/22 12:44:31;;;;;;;4.30;2.80;;;32.80;99.90;;;;;;5043440;28;20045;-54
2023/07/22 12:46:57;;;;;;;8.18;3.40;;;32.90;99.90;;;;;;5067754;28;20104;-55
2023/07/22 12:49:23;;;;;;;4.10;2.78;;;33.00;99.90;;;;;;5066429;28;20028;-54
2023/07/22 12:52:09;;;;;;;3.65;2.53;;;33.30;99.90;;;;;;5066457;28;20474;-54
2023/07/22 12:54:35;;;;;;;5.55;3.25;;;33.40;99.90;;;;;;5031930;28;20056;-54
2023/07/22 12:57:02;;;;;;;4.15;2.92;;;33.50;99.90;;;;;;5043154;28;20562;-54
2023/07/22 12:59:28;;;;;;;4.85;3.05;;;33.80;99.90;;;;;;5036420;28;20551;-54
2023/07/22 13:01:53;;;;;;;3.70;3.13;;;33.50;99.90;;;;;;5046763;28;20099;-55
2023/07/22 13:04:19;;;;;;;4.72;3.15;;;33.60;99.90;;;;;;5014684;28;20488;-56
2023/07/22 13:07:05;;;;;;;5.35;2.80;;;34.10;99.90;;;;;;5037397;28;20471;-54
2023/07/22 13:09:31;;;;;;;4.45;2.63;;;34.70;99.90;;;;;;5024934;28;20094;-54
2023/07/22 13:11:57;;;;;;;3.67;2.78;;;35.10;99.90;;;;;;5047854;28;20032;-55
2023/07/22 13:14:42;;;;;;;4.50;2.63;;;35.30;99.90;;;;;;5019127;28;20046;-55
2023/07/22 13:17:08;;;;;;;3.58;2.70;;;34.90;99.90;;;;;;5019794;28;20064;-54
2023/07/22 13:19:34;;;;;;;4.85;2.85;;;35.10;99.90;;;;;;4971975;28;20125;-56
2023/07/22 13:21:59;;;;;;;4.95;2.78;;;35.30;99.90;;;;;;5020558;28;20033;-54